sensor_id;sensor_type;location;lat;lon;timestamp;temperature;humidity
73149;SHT30;61346;48.930;2.266;2022-07-18T00:00:29;26.60;26.94
73149;SHT30;61346;48.930;2.266;2022-07-18T00:02:54;26.55;27.05
73149;SHT30;61346;48.930;2.266;2022-07-18T00:05:20;26.55;27.05
73149;SHT30;61346;48.930;2.266;2022-07-18T00:07:45;26.47;27.11
73149;SHT30;61346;48.930;2.266;2022-07-18T00:10:10;26.46;27.20
73149;SHT30;61346;48.930;2.266;2022-07-18T00:12:36;26.42;27.26
73149;SHT30;61346;48.930;2.266;2022-07-18T00:15:02;26.36;27.30
73149;SHT30;61346;48.930;2.266;2022-07-18T00:17:28;26.31;27.42
73149;SHT30;61346;48.930;2.266;2022-07-18T00:19:54;26.28;27.39
73149;SHT30;61346;48.930;2.266;2022-07-18T00:22:22;26.26;27.46
73149;SHT30;61346;48.930;2.266;2022-07-18T00:24:47;26.19;27.58
73149;SHT30;61346;48.930;2.266;2022-07-18T00:27:14;26.18;27.63
73149;SHT30;61346;48.930;2.266;2022-07-18T00:29:39;26.12;27.69
73149;SHT30;61346;48.930;2.266;2022-07-18T00:32:06;26.08;27.81
73149;SHT30;61346;48.930;2.266;2022-07-18T00:34:32;26.05;27.90
73149;SHT30;61346;48.930;2.266;2022-07-18T00:36:58;26.01;27.93
73149;SHT30;61346;48.930;2.266;2022-07-18T00:39:24;25.98;27.99
73149;SHT30;61346;48.930;2.266;2022-07-18T00:41:50;25.95;28.06
73149;SHT30;61346;48.930;2.266;2022-07-18T00:44:21;25.91;28.15
73149;SHT30;61346;48.930;2.266;2022-07-18T00:46:49;25.90;28.15
73149;SHT30;61346;48.930;2.266;2022-07-18T00:49:17;25.85;28.24
73149;SHT30;61346;48.930;2.266;2022-07-18T00:51:43;25.82;28.50
73149;SHT30;61346;48.930;2.266;2022-07-18T00:54:08;25.80;28.64
73149;SHT30;61346;48.930;2.266;2022-07-18T00:56:34;25.80;28.63
73149;SHT30;61346;48.930;2.266;2022-07-18T00:58:59;25.78;28.78
73149;SHT30;61346;48.930;2.266;2022-07-18T01:01:25;25.75;28.81
73149;SHT30;61346;48.930;2.266;2022-07-18T01:04:20;25.74;28.92
73149;SHT30;61346;48.930;2.266;2022-07-18T01:06:47;25.75;28.86
73149;SHT30;61346;48.930;2.266;2022-07-18T01:09:13;25.74;28.90
73149;SHT30;61346;48.930;2.266;2022-07-18T01:11:39;25.71;28.89
73149;SHT30;61346;48.930;2.266;2022-07-18T01:14:05;25.73;29.07
73149;SHT30;61346;48.930;2.266;2022-07-18T01:16:31;25.69;29.10
73149;SHT30;61346;48.930;2.266;2022-07-18T01:18:57;25.69;29.15
73149;SHT30;61346;48.930;2.266;2022-07-18T01:21:23;25.70;29.24
73149;SHT30;61346;48.930;2.266;2022-07-18T01:23:49;25.67;29.46
73149;SHT30;61346;48.930;2.266;2022-07-18T01:26:15;25.66;29.47
73149;SHT30;61346;48.930;2.266;2022-07-18T01:28:42;25.66;29.42
73149;SHT30;61346;48.930;2.266;2022-07-18T01:31:07;25.63;29.56
73149;SHT30;61346;48.930;2.266;2022-07-18T01:33:34;25.62;29.62
73149;SHT30;61346;48.930;2.266;2022-07-18T01:36:01;25.57;29.70
73149;SHT30;61346;48.930;2.266;2022-07-18T01:38:28;25.53;29.79
73149;SHT30;61346;48.930;2.266;2022-07-18T01:40:54;25.53;29.88
73149;SHT30;61346;48.930;2.266;2022-07-18T01:43:21;25.54;29.87
73149;SHT30;61346;48.930;2.266;2022-07-18T01:45:46;25.49;29.82
73149;SHT30;61346;48.930;2.266;2022-07-18T01:48:12;25.46;29.83
73149;SHT30;61346;48.930;2.266;2022-07-18T01:50:37;25.43;29.92
73149;SHT30;61346;48.930;2.266;2022-07-18T01:53:02;25.39;29.90
73149;SHT30;61346;48.930;2.266;2022-07-18T01:55:28;25.37;29.82
73149;SHT30;61346;48.930;2.266;2022-07-18T01:57:53;25.33;29.94
73149;SHT30;61346;48.930;2.266;2022-07-18T02:00:21;25.29;29.97
73149;SHT30;61346;48.930;2.266;2022-07-18T02:02:47;25.26;30.00
73149;SHT30;61346;48.930;2.266;2022-07-18T02:05:12;25.22;30.06
73149;SHT30;61346;48.930;2.266;2022-07-18T02:07:40;25.19;30.08
73149;SHT30;61346;48.930;2.266;2022-07-18T02:10:15;25.14;30.13
73149;SHT30;61346;48.930;2.266;2022-07-18T02:12:42;25.09;30.16
73149;SHT30;61346;48.930;2.266;2022-07-18T02:15:09;25.05;30.21
73149;SHT30;61346;48.930;2.266;2022-07-18T02:17:38;25.01;30.37
73149;SHT30;61346;48.930;2.266;2022-07-18T02:20:06;25.01;30.55
73149;SHT30;61346;48.930;2.266;2022-07-18T02:22:32;24.96;30.57
73149;SHT30;61346;48.930;2.266;2022-07-18T02:24:58;24.95;30.64
73149;SHT30;61346;48.930;2.266;2022-07-18T02:27:24;24.94;30.72
73149;SHT30;61346;48.930;2.266;2022-07-18T02:29:50;24.91;30.73
73149;SHT30;61346;48.930;2.266;2022-07-18T02:32:16;24.85;30.85
73149;SHT30;61346;48.930;2.266;2022-07-18T02:34:42;24.85;30.97
73149;SHT30;61346;48.930;2.266;2022-07-18T02:37:07;24.82;30.99
73149;SHT30;61346;48.930;2.266;2022-07-18T02:39:33;24.80;31.03
73149;SHT30;61346;48.930;2.266;2022-07-18T02:41:59;24.80;31.08
73149;SHT30;61346;48.930;2.266;2022-07-18T02:44:25;24.75;31.20
73149;SHT30;61346;48.930;2.266;2022-07-18T02:46:52;24.75;31.31
73149;SHT30;61346;48.930;2.266;2022-07-18T02:49:18;24.74;31.43
73149;SHT30;61346;48.930;2.266;2022-07-18T02:51:57;24.70;31.53
73149;SHT30;61346;48.930;2.266;2022-07-18T02:54:24;24.67;31.72
73149;SHT30;61346;48.930;2.266;2022-07-18T02:56:52;24.65;31.75
73149;SHT30;61346;48.930;2.266;2022-07-18T02:59:18;24.63;31.95
73149;SHT30;61346;48.930;2.266;2022-07-18T03:01:44;24.60;31.98
73149;SHT30;61346;48.930;2.266;2022-07-18T03:04:10;24.57;32.22
73149;SHT30;61346;48.930;2.266;2022-07-18T03:06:35;24.54;32.16
73149;SHT30;61346;48.930;2.266;2022-07-18T03:09:01;24.54;32.28
73149;SHT30;61346;48.930;2.266;2022-07-18T03:11:26;24.49;32.34
73149;SHT30;61346;48.930;2.266;2022-07-18T03:13:52;24.47;32.32
73149;SHT30;61346;48.930;2.266;2022-07-18T03:16:17;24.47;32.24
73149;SHT30;61346;48.930;2.266;2022-07-18T03:18:43;24.44;32.24
73149;SHT30;61346;48.930;2.266;2022-07-18T03:21:08;24.41;32.21
73149;SHT30;61346;48.930;2.266;2022-07-18T03:23:34;24.39;32.27
73149;SHT30;61346;48.930;2.266;2022-07-18T03:25:59;24.33;32.25
73149;SHT30;61346;48.930;2.266;2022-07-18T03:28:27;24.32;32.34
73149;SHT30;61346;48.930;2.266;2022-07-18T03:30:55;24.27;32.34
73149;SHT30;61346;48.930;2.266;2022-07-18T03:33:24;24.25;32.40
73149;SHT30;61346;48.930;2.266;2022-07-18T03:35:50;24.25;32.42
73149;SHT30;61346;48.930;2.266;2022-07-18T03:38:18;24.22;32.53
73149;SHT30;61346;48.930;2.266;2022-07-18T03:40:44;24.17;32.58
73149;SHT30;61346;48.930;2.266;2022-07-18T03:43:10;24.15;32.67
73149;SHT30;61346;48.930;2.266;2022-07-18T03:45:38;24.13;32.71
73149;SHT30;61346;48.930;2.266;2022-07-18T03:48:03;24.10;32.80
73149;SHT30;61346;48.930;2.266;2022-07-18T03:50:29;24.09;32.94
73149;SHT30;61346;48.930;2.266;2022-07-18T03:52:54;24.08;32.99
73149;SHT30;61346;48.930;2.266;2022-07-18T03:55:20;24.04;33.12
73149;SHT30;61346;48.930;2.266;2022-07-18T03:57:46;24.06;33.12
73149;SHT30;61346;48.930;2.266;2022-07-18T04:00:12;24.02;33.18
73149;SHT30;61346;48.930;2.266;2022-07-18T04:02:43;23.99;33.39
73149;SHT30;61346;48.930;2.266;2022-07-18T04:05:09;23.95;33.62
73149;SHT30;61346;48.930;2.266;2022-07-18T04:07:35;23.94;33.58
73149;SHT30;61346;48.930;2.266;2022-07-18T04:10:01;23.95;33.51
73149;SHT30;61346;48.930;2.266;2022-07-18T04:12:26;23.90;33.53
73149;SHT30;61346;48.930;2.266;2022-07-18T04:14:51;23.90;33.57
73149;SHT30;61346;48.930;2.266;2022-07-18T04:17:19;23.92;33.61
73149;SHT30;61346;48.930;2.266;2022-07-18T04:19:45;23.88;33.64
73149;SHT30;61346;48.930;2.266;2022-07-18T04:22:10;23.89;33.67
73149;SHT30;61346;48.930;2.266;2022-07-18T04:24:36;23.89;33.64
73149;SHT30;61346;48.930;2.266;2022-07-18T04:27:01;23.90;33.59
73149;SHT30;61346;48.930;2.266;2022-07-18T04:29:27;23.89;33.61
73149;SHT30;61346;48.930;2.266;2022-07-18T04:31:52;23.86;33.60
73149;SHT30;61346;48.930;2.266;2022-07-18T04:34:18;23.88;33.53
73149;SHT30;61346;48.930;2.266;2022-07-18T04:36:46;23.88;33.60
73149;SHT30;61346;48.930;2.266;2022-07-18T04:39:11;23.88;33.63
73149;SHT30;61346;48.930;2.266;2022-07-18T04:41:37;23.88;33.64
73149;SHT30;61346;48.930;2.266;2022-07-18T04:44:02;23.89;33.65
73149;SHT30;61346;48.930;2.266;2022-07-18T04:46:28;23.86;33.67
73149;SHT30;61346;48.930;2.266;2022-07-18T04:48:53;23.89;33.61
73149;SHT30;61346;48.930;2.266;2022-07-18T04:51:24;23.85;33.68
73149;SHT30;61346;48.930;2.266;2022-07-18T04:53:50;23.84;33.65
73149;SHT30;61346;48.930;2.266;2022-07-18T04:56:17;23.84;33.67
73149;SHT30;61346;48.930;2.266;2022-07-18T04:58:43;23.84;33.68
73149;SHT30;61346;48.930;2.266;2022-07-18T05:01:08;23.85;33.80
73149;SHT30;61346;48.930;2.266;2022-07-18T05:03:35;23.85;33.81
73149;SHT30;61346;48.930;2.266;2022-07-18T05:06:02;23.86;33.84
73149;SHT30;61346;48.930;2.266;2022-07-18T05:08:27;23.86;33.90
73149;SHT30;61346;48.930;2.266;2022-07-18T05:10:52;23.86;33.98
73149;SHT30;61346;48.930;2.266;2022-07-18T05:13:18;23.86;34.04
73149;SHT30;61346;48.930;2.266;2022-07-18T05:15:44;23.89;34.03
73149;SHT30;61346;48.930;2.266;2022-07-18T05:18:09;23.89;34.07
73149;SHT30;61346;48.930;2.266;2022-07-18T05:20:34;23.92;34.24
73149;SHT30;61346;48.930;2.266;2022-07-18T05:23:01;23.94;34.35
73149;SHT30;61346;48.930;2.266;2022-07-18T05:25:27;23.96;34.42
73149;SHT30;61346;48.930;2.266;2022-07-18T05:27:52;24.02;34.64
73149;SHT30;61346;48.930;2.266;2022-07-18T05:30:18;24.02;35.08
73149;SHT30;61346;48.930;2.266;2022-07-18T05:32:46;24.05;34.97
73149;SHT30;61346;48.930;2.266;2022-07-18T05:35:12;24.08;34.93
73149;SHT30;61346;48.930;2.266;2022-07-18T05:37:39;24.10;34.99
73149;SHT30;61346;48.930;2.266;2022-07-18T05:40:10;24.13;34.96
73149;SHT30;61346;48.930;2.266;2022-07-18T05:42:39;24.15;34.98
73149;SHT30;61346;48.930;2.266;2022-07-18T05:45:06;24.19;35.14
73149;SHT30;61346;48.930;2.266;2022-07-18T05:47:32;24.22;35.04
73149;SHT30;61346;48.930;2.266;2022-07-18T05:49:58;24.25;34.99
73149;SHT30;61346;48.930;2.266;2022-07-18T05:52:31;24.27;34.96
73149;SHT30;61346;48.930;2.266;2022-07-18T05:54:56;24.32;35.01
73149;SHT30;61346;48.930;2.266;2022-07-18T05:57:22;24.33;34.93
73149;SHT30;61346;48.930;2.266;2022-07-18T05:59:47;24.34;34.83
73149;SHT30;61346;48.930;2.266;2022-07-18T06:02:13;24.40;34.80
73149;SHT30;61346;48.930;2.266;2022-07-18T06:04:39;24.46;34.72
73149;SHT30;61346;48.930;2.266;2022-07-18T06:07:05;24.49;34.80
73149;SHT30;61346;48.930;2.266;2022-07-18T06:09:30;24.54;34.73
73149;SHT30;61346;48.930;2.266;2022-07-18T06:12:00;24.59;34.65
73149;SHT30;61346;48.930;2.266;2022-07-18T06:14:27;24.65;34.68
73149;SHT30;61346;48.930;2.266;2022-07-18T06:16:53;24.70;34.64
73149;SHT30;61346;48.930;2.266;2022-07-18T06:19:18;24.74;34.66
73149;SHT30;61346;48.930;2.266;2022-07-18T06:21:44;24.81;34.54
73149;SHT30;61346;48.930;2.266;2022-07-18T06:24:09;24.84;34.54
73149;SHT30;61346;48.930;2.266;2022-07-18T06:26:35;24.88;34.53
73149;SHT30;61346;48.930;2.266;2022-07-18T06:29:00;24.94;34.51
73149;SHT30;61346;48.930;2.266;2022-07-18T06:31:26;24.99;34.47
73149;SHT30;61346;48.930;2.266;2022-07-18T06:33:51;25.04;34.45
73149;SHT30;61346;48.930;2.266;2022-07-18T06:36:16;25.05;34.48
73149;SHT30;61346;48.930;2.266;2022-07-18T06:38:42;25.12;34.50
73149;SHT30;61346;48.930;2.266;2022-07-18T06:41:08;25.19;34.40
73149;SHT30;61346;48.930;2.266;2022-07-18T06:43:36;25.23;34.45
73149;SHT30;61346;48.930;2.266;2022-07-18T06:46:01;25.26;34.36
73149;SHT30;61346;48.930;2.266;2022-07-18T06:48:27;25.32;34.30
73149;SHT30;61346;48.930;2.266;2022-07-18T06:50:58;25.39;34.26
73149;SHT30;61346;48.930;2.266;2022-07-18T06:53:23;25.46;34.17
73149;SHT30;61346;48.930;2.266;2022-07-18T06:55:56;25.50;34.16
73149;SHT30;61346;48.930;2.266;2022-07-18T06:58:22;25.56;34.12
73149;SHT30;61346;48.930;2.266;2022-07-18T07:00:48;25.62;34.10
73149;SHT30;61346;48.930;2.266;2022-07-18T07:03:14;25.67;34.04
73149;SHT30;61346;48.930;2.266;2022-07-18T07:05:39;25.71;34.05
73149;SHT30;61346;48.930;2.266;2022-07-18T07:08:05;25.80;34.03
73149;SHT30;61346;48.930;2.266;2022-07-18T07:10:30;25.87;33.95
73149;SHT30;61346;48.930;2.266;2022-07-18T07:12:56;25.94;33.93
73149;SHT30;61346;48.930;2.266;2022-07-18T07:15:24;26.00;33.89
73149;SHT30;61346;48.930;2.266;2022-07-18T07:17:51;26.08;33.94
73149;SHT30;61346;48.930;2.266;2022-07-18T07:20:17;26.14;33.86
73149;SHT30;61346;48.930;2.266;2022-07-18T07:22:51;26.21;33.82
73149;SHT30;61346;48.930;2.266;2022-07-18T07:25:19;26.29;33.75
73149;SHT30;61346;48.930;2.266;2022-07-18T07:27:46;26.36;33.76
73149;SHT30;61346;48.930;2.266;2022-07-18T07:30:13;26.45;33.69
73149;SHT30;61346;48.930;2.266;2022-07-18T07:32:45;26.52;33.67
73149;SHT30;61346;48.930;2.266;2022-07-18T07:35:14;26.61;33.61
73149;SHT30;61346;48.930;2.266;2022-07-18T07:37:42;26.66;33.54
73149;SHT30;61346;48.930;2.266;2022-07-18T07:40:13;26.76;33.55
73149;SHT30;61346;48.930;2.266;2022-07-18T07:42:39;26.83;33.41
73149;SHT30;61346;48.930;2.266;2022-07-18T07:45:07;26.90;33.39
73149;SHT30;61346;48.930;2.266;2022-07-18T07:47:34;26.98;33.32
73149;SHT30;61346;48.930;2.266;2022-07-18T07:50:00;27.07;33.32
73149;SHT30;61346;48.930;2.266;2022-07-18T07:52:26;27.15;33.33
73149;SHT30;61346;48.930;2.266;2022-07-18T07:54:53;27.21;33.21
73149;SHT30;61346;48.930;2.266;2022-07-18T07:57:19;27.32;33.14
73149;SHT30;61346;48.930;2.266;2022-07-18T07:59:44;27.41;33.13
73149;SHT30;61346;48.930;2.266;2022-07-18T08:02:13;27.48;33.12
73149;SHT30;61346;48.930;2.266;2022-07-18T08:04:40;27.57;33.04
73149;SHT30;61346;48.930;2.266;2022-07-18T08:07:06;27.67;32.98
73149;SHT30;61346;48.930;2.266;2022-07-18T08:09:31;27.76;32.90
73149;SHT30;61346;48.930;2.266;2022-07-18T08:11:56;27.84;32.84
73149;SHT30;61346;48.930;2.266;2022-07-18T08:14:22;27.94;32.80
73149;SHT30;61346;48.930;2.266;2022-07-18T08:16:47;28.01;32.81
73149;SHT30;61346;48.930;2.266;2022-07-18T08:19:13;28.08;32.68
73149;SHT30;61346;48.930;2.266;2022-07-18T08:21:39;28.21;32.61
73149;SHT30;61346;48.930;2.266;2022-07-18T08:24:05;28.32;32.52
73149;SHT30;61346;48.930;2.266;2022-07-18T08:26:31;28.42;32.46
73149;SHT30;61346;48.930;2.266;2022-07-18T08:29:05;28.52;32.34
73149;SHT30;61346;48.930;2.266;2022-07-18T08:31:58;28.62;32.22
73149;SHT30;61346;48.930;2.266;2022-07-18T08:34:24;28.75;32.11
73149;SHT30;61346;48.930;2.266;2022-07-18T08:36:52;28.86;32.09
73149;SHT30;61346;48.930;2.266;2022-07-18T08:39:20;28.97;31.94
73149;SHT30;61346;48.930;2.266;2022-07-18T08:41:52;29.07;31.87
73149;SHT30;61346;48.930;2.266;2022-07-18T08:44:20;29.18;31.83
73149;SHT30;61346;48.930;2.266;2022-07-18T08:46:51;29.31;31.68
73149;SHT30;61346;48.930;2.266;2022-07-18T08:49:17;29.38;31.64
73149;SHT30;61346;48.930;2.266;2022-07-18T08:51:43;29.52;31.61
73149;SHT30;61346;48.930;2.266;2022-07-18T08:54:09;29.58;31.46
73149;SHT30;61346;48.930;2.266;2022-07-18T08:56:37;29.66;31.26
73149;SHT30;61346;48.930;2.266;2022-07-18T08:59:18;29.80;31.10
73149;SHT30;61346;48.930;2.266;2022-07-18T09:01:43;29.92;30.93
73149;SHT30;61346;48.930;2.266;2022-07-18T09:07:02;30.17;30.69
73149;SHT30;61346;48.930;2.266;2022-07-18T09:09:52;30.31;30.52
73149;SHT30;61346;48.930;2.266;2022-07-18T09:12:22;30.47;30.27
73149;SHT30;61346;48.930;2.266;2022-07-18T09:14:56;30.57;30.10
73149;SHT30;61346;48.930;2.266;2022-07-18T09:17:28;30.68;29.93
73149;SHT30;61346;48.930;2.266;2022-07-18T09:20:10;30.79;29.60
73149;SHT30;61346;48.930;2.266;2022-07-18T09:22:50;30.89;29.66
73149;SHT30;61346;48.930;2.266;2022-07-18T09:25:17;30.99;29.44
73149;SHT30;61346;48.930;2.266;2022-07-18T09:27:51;31.13;29.44
73149;SHT30;61346;48.930;2.266;2022-07-18T09:35:36;31.45;28.98
73149;SHT30;61346;48.930;2.266;2022-07-18T09:38:06;31.54;28.95
73149;SHT30;61346;48.930;2.266;2022-07-18T09:40:47;31.68;28.68
73149;SHT30;61346;48.930;2.266;2022-07-18T09:43:19;31.80;28.75
73149;SHT30;61346;48.930;2.266;2022-07-18T09:45:57;31.91;28.49
73149;SHT30;61346;48.930;2.266;2022-07-18T09:48:38;31.98;28.28
73149;SHT30;61346;48.930;2.266;2022-07-18T09:51:07;32.12;28.25
73149;SHT30;61346;48.930;2.266;2022-07-18T09:53:46;32.22;28.28
73149;SHT30;61346;48.930;2.266;2022-07-18T09:56:23;32.35;28.16
73149;SHT30;61346;48.930;2.266;2022-07-18T09:58:57;32.46;27.81
73149;SHT30;61346;48.930;2.266;2022-07-18T10:01:45;32.54;27.78
73149;SHT30;61346;48.930;2.266;2022-07-18T10:04:14;32.63;27.47
73149;SHT30;61346;48.930;2.266;2022-07-18T10:06:40;32.71;27.52
73149;SHT30;61346;48.930;2.266;2022-07-18T10:09:17;32.80;27.43
73149;SHT30;61346;48.930;2.266;2022-07-18T10:11:45;32.95;27.44
73149;SHT30;61346;48.930;2.266;2022-07-18T10:14:31;33.05;27.27
73149;SHT30;61346;48.930;2.266;2022-07-18T10:17:17;33.19;27.24
73149;SHT30;61346;48.930;2.266;2022-07-18T10:19:46;33.32;27.13
73149;SHT30;61346;48.930;2.266;2022-07-18T10:22:39;33.46;27.13
73149;SHT30;61346;48.930;2.266;2022-07-18T10:25:27;33.60;27.00
73149;SHT30;61346;48.930;2.266;2022-07-18T10:28:09;33.77;26.82
73149;SHT30;61346;48.930;2.266;2022-07-18T10:30:44;33.84;26.77
73149;SHT30;61346;48.930;2.266;2022-07-18T10:39:10;34.22;26.40
73149;SHT30;61346;48.930;2.266;2022-07-18T10:44:43;34.42;26.30
73149;SHT30;61346;48.930;2.266;2022-07-18T10:47:19;34.51;26.27
73149;SHT30;61346;48.930;2.266;2022-07-18T10:50:06;34.65;26.19
73149;SHT30;61346;48.930;2.266;2022-07-18T11:00:36;35.13;25.91
73149;SHT30;61346;48.930;2.266;2022-07-18T11:03:15;35.20;25.75
73149;SHT30;61346;48.930;2.266;2022-07-18T11:05:58;35.30;25.59
73149;SHT30;61346;48.930;2.266;2022-07-18T11:08:47;35.42;25.51
73149;SHT30;61346;48.930;2.266;2022-07-18T11:11:20;35.54;25.54
73149;SHT30;61346;48.930;2.266;2022-07-18T11:17:18;35.75;25.47
73149;SHT30;61346;48.930;2.266;2022-07-18T11:22:57;36.02;25.14
73149;SHT30;61346;48.930;2.266;2022-07-18T11:25:37;36.07;24.71
73149;SHT30;61346;48.930;2.266;2022-07-18T11:28:17;36.16;24.76
73149;SHT30;61346;48.930;2.266;2022-07-18T11:31:09;36.29;24.55
73149;SHT30;61346;48.930;2.266;2022-07-18T11:36:42;36.51;24.51
73149;SHT30;61346;48.930;2.266;2022-07-18T11:39:27;36.61;24.30
73149;SHT30;61346;48.930;2.266;2022-07-18T11:41:56;36.67;24.27
73149;SHT30;61346;48.930;2.266;2022-07-18T11:44:28;36.75;24.13
73149;SHT30;61346;48.930;2.266;2022-07-18T11:47:07;36.84;23.77
73149;SHT30;61346;48.930;2.266;2022-07-18T11:49:38;36.92;23.84
73149;SHT30;61346;48.930;2.266;2022-07-18T11:52:07;37.05;23.90
73149;SHT30;61346;48.930;2.266;2022-07-18T11:54:37;37.13;23.70
73149;SHT30;61346;48.930;2.266;2022-07-18T11:57:08;37.27;23.71
73149;SHT30;61346;48.930;2.266;2022-07-18T11:59:39;37.41;23.73
73149;SHT30;61346;48.930;2.266;2022-07-18T12:02:16;37.54;23.25
73149;SHT30;61346;48.930;2.266;2022-07-18T12:04:42;37.61;23.27
73149;SHT30;61346;48.930;2.266;2022-07-18T12:07:19;37.71;23.22
73149;SHT30;61346;48.930;2.266;2022-07-18T12:09:49;37.87;23.13
73149;SHT30;61346;48.930;2.266;2022-07-18T12:12:28;38.00;23.02
73149;SHT30;61346;48.930;2.266;2022-07-18T12:15:08;38.12;22.90
73149;SHT30;61346;48.930;2.266;2022-07-18T12:17:57;38.48;22.79
73149;SHT30;61346;48.930;2.266;2022-07-18T12:20:32;38.91;22.43
73149;SHT30;61346;48.930;2.266;2022-07-18T12:23:09;39.18;22.36
73149;SHT30;61346;48.930;2.266;2022-07-18T12:25:47;40.32;22.01
73149;SHT30;61346;48.930;2.266;2022-07-18T12:28:18;41.54;21.26
73149;SHT30;61346;48.930;2.266;2022-07-18T12:30:47;41.51;21.18
73149;SHT30;61346;48.930;2.266;2022-07-18T12:33:16;41.33;21.24
73149;SHT30;61346;48.930;2.266;2022-07-18T12:36:07;41.19;21.34
73149;SHT30;61346;48.930;2.266;2022-07-18T12:38:36;41.35;21.36
73149;SHT30;61346;48.930;2.266;2022-07-18T12:41:12;41.88;20.82
73149;SHT30;61346;48.930;2.266;2022-07-18T12:43:47;41.81;18.68
73149;SHT30;61346;48.930;2.266;2022-07-18T12:46:27;41.50;19.81
73149;SHT30;61346;48.930;2.266;2022-07-18T12:49:00;41.29;20.06
73149;SHT30;61346;48.930;2.266;2022-07-18T12:51:36;41.38;20.34
73149;SHT30;61346;48.930;2.266;2022-07-18T12:57:25;41.99;20.09
73149;SHT30;61346;48.930;2.266;2022-07-18T13:00:01;42.19;19.71
73149;SHT30;61346;48.930;2.266;2022-07-18T13:02:29;42.19;19.56
73149;SHT30;61346;48.930;2.266;2022-07-18T13:05:19;42.07;19.26
73149;SHT30;61346;48.930;2.266;2022-07-18T13:07:47;41.81;18.37
73149;SHT30;61346;48.930;2.266;2022-07-18T13:10:12;41.61;19.14
73149;SHT30;61346;48.930;2.266;2022-07-18T13:12:38;41.55;19.40
73149;SHT30;61346;48.930;2.266;2022-07-18T13:15:07;41.58;19.41
73149;SHT30;61346;48.930;2.266;2022-07-18T13:17:41;41.58;19.19
73149;SHT30;61346;48.930;2.266;2022-07-18T13:20:16;41.64;19.12
73149;SHT30;61346;48.930;2.266;2022-07-18T13:22:44;41.62;19.10
73149;SHT30;61346;48.930;2.266;2022-07-18T13:25:14;41.72;18.68
73149;SHT30;61346;48.930;2.266;2022-07-18T13:28:10;41.98;19.07
73149;SHT30;61346;48.930;2.266;2022-07-18T13:30:38;42.37;18.83
73149;SHT30;61346;48.930;2.266;2022-07-18T13:33:17;42.37;18.76
73149;SHT30;61346;48.930;2.266;2022-07-18T13:36:05;42.23;18.75
73149;SHT30;61346;48.930;2.266;2022-07-18T13:38:42;42.09;18.34
73149;SHT30;61346;48.930;2.266;2022-07-18T13:41:27;42.03;18.77
73149;SHT30;61346;48.930;2.266;2022-07-18T13:43:58;42.09;18.60
73149;SHT30;61346;48.930;2.266;2022-07-18T13:46:48;42.20;18.19
73149;SHT30;61346;48.930;2.266;2022-07-18T13:49:16;42.86;18.20
73149;SHT30;61346;48.930;2.266;2022-07-18T13:51:47;43.29;18.04
73149;SHT30;61346;48.930;2.266;2022-07-18T13:54:17;43.35;17.92
73149;SHT30;61346;48.930;2.266;2022-07-18T13:56:46;43.42;18.19
73149;SHT30;61346;48.930;2.266;2022-07-18T13:59:34;44.01;18.19
73149;SHT30;61346;48.930;2.266;2022-07-18T14:02:05;44.55;17.88
73149;SHT30;61346;48.930;2.266;2022-07-18T14:04:39;44.60;17.98
73149;SHT30;61346;48.930;2.266;2022-07-18T14:07:12;44.55;17.99
73149;SHT30;61346;48.930;2.266;2022-07-18T14:09:47;44.53;17.85
73149;SHT30;61346;48.930;2.266;2022-07-18T14:12:17;44.51;17.50
73149;SHT30;61346;48.930;2.266;2022-07-18T14:15:17;44.45;17.74
73149;SHT30;61346;48.930;2.266;2022-07-18T14:17:46;44.51;17.65
73149;SHT30;61346;48.930;2.266;2022-07-18T14:20:12;44.66;17.64
73149;SHT30;61346;48.930;2.266;2022-07-18T14:22:49;44.96;17.57
73149;SHT30;61346;48.930;2.266;2022-07-18T14:25:28;45.73;16.98
73149;SHT30;61346;48.930;2.266;2022-07-18T14:27:58;46.24;16.76
73149;SHT30;61346;48.930;2.266;2022-07-18T14:30:26;46.26;16.47
73149;SHT30;61346;48.930;2.266;2022-07-18T14:32:57;46.72;17.14
73149;SHT30;61346;48.930;2.266;2022-07-18T14:35:28;48.93;16.10
73149;SHT30;61346;48.930;2.266;2022-07-18T14:37:56;50.97;15.58
73149;SHT30;61346;48.930;2.266;2022-07-18T14:40:44;52.93;15.06
73149;SHT30;61346;48.930;2.266;2022-07-18T14:43:13;54.42;14.00
73149;SHT30;61346;48.930;2.266;2022-07-18T14:45:52;55.67;13.96
73149;SHT30;61346;48.930;2.266;2022-07-18T14:48:24;56.74;13.95
73149;SHT30;61346;48.930;2.266;2022-07-18T14:50:52;57.59;13.83
73149;SHT30;61346;48.930;2.266;2022-07-18T14:53:31;58.43;13.49
73149;SHT30;61346;48.930;2.266;2022-07-18T14:55:56;58.98;12.79
73149;SHT30;61346;48.930;2.266;2022-07-18T14:58:22;59.39;12.83
73149;SHT30;61346;48.930;2.266;2022-07-18T15:00:55;59.97;12.83
73149;SHT30;61346;48.930;2.266;2022-07-18T15:03:26;60.66;12.59
73149;SHT30;61346;48.930;2.266;2022-07-18T15:06:12;61.20;12.55
73149;SHT30;61346;48.930;2.266;2022-07-18T15:08:48;61.69;12.00
73149;SHT30;61346;48.930;2.266;2022-07-18T15:11:14;61.93;12.26
73149;SHT30;61346;48.930;2.266;2022-07-18T15:13:55;62.58;12.16
73149;SHT30;61346;48.930;2.266;2022-07-18T15:16:25;63.27;11.92
73149;SHT30;61346;48.930;2.266;2022-07-18T15:18:50;63.64;11.58
73149;SHT30;61346;48.930;2.266;2022-07-18T15:21:24;63.94;11.16
73149;SHT30;61346;48.930;2.266;2022-07-18T15:23:58;63.94;10.31
73149;SHT30;61346;48.930;2.266;2022-07-18T15:26:26;64.19;11.14
73149;SHT30;61346;48.930;2.266;2022-07-18T15:29:01;64.43;10.70
73149;SHT30;61346;48.930;2.266;2022-07-18T15:31:27;64.53;11.18
73149;SHT30;61346;48.930;2.266;2022-07-18T15:33:52;64.70;11.09
73149;SHT30;61346;48.930;2.266;2022-07-18T15:36:22;65.04;11.17
73149;SHT30;61346;48.930;2.266;2022-07-18T15:39:08;65.46;10.00
73149;SHT30;61346;48.930;2.266;2022-07-18T15:41:39;65.35;10.94
73149;SHT30;61346;48.930;2.266;2022-07-18T15:44:09;65.53;10.80
73149;SHT30;61346;48.930;2.266;2022-07-18T15:46:38;65.59;10.07
73149;SHT30;61346;48.930;2.266;2022-07-18T15:49:04;65.31;10.20
73149;SHT30;61346;48.930;2.266;2022-07-18T15:51:35;65.14;10.72
73149;SHT30;61346;48.930;2.266;2022-07-18T15:54:03;65.21;10.62
73149;SHT30;61346;48.930;2.266;2022-07-18T15:56:38;65.32;10.55
73149;SHT30;61346;48.930;2.266;2022-07-18T15:59:06;65.48;10.68
73149;SHT30;61346;48.930;2.266;2022-07-18T16:04:17;65.39;9.98
73149;SHT30;61346;48.930;2.266;2022-07-18T16:06:46;65.22;10.46
73149;SHT30;61346;48.930;2.266;2022-07-18T16:09:14;64.90;10.49
73149;SHT30;61346;48.930;2.266;2022-07-18T16:11:47;64.60;10.54
73149;SHT30;61346;48.930;2.266;2022-07-18T16:14:20;64.55;10.79
73149;SHT30;61346;48.930;2.266;2022-07-18T16:16:57;64.59;10.47
73149;SHT30;61346;48.930;2.266;2022-07-18T16:19:47;64.22;10.52
73149;SHT30;61346;48.930;2.266;2022-07-18T16:22:18;64.01;10.48
73149;SHT30;61346;48.930;2.266;2022-07-18T16:24:44;63.69;10.50
73149;SHT30;61346;48.930;2.266;2022-07-18T16:27:22;63.53;10.69